sensor_id;sensor_type;location;lat;lon;timestamp;P1;durP1;ratioP1;P2;durP2;ratioP2
60979;SDS011;46851;49.160;8.980;2022-11-15T00:02:04;12.93;;;5.28;;
60979;SDS011;46851;49.160;8.980;2022-11-15T00:04:29;12.93;;;5.28;;
60979;SDS011;46851;49.160;8.980;2022-11-15T00:06:55;9.90;;;4.65;;
60979;SDS011;46851;49.160;8.980;2022-11-15T00:09:21;7.45;;;3.53;;
60979;SDS011;46851;49.160;8.980;2022-11-15T00:11:47;7.68;;;3.50;;
60979;SDS011;46851;49.160;8.980;2022-11-15T00:14:13;6.35;;;3.88;;
60979;SDS011;46851;49.160;8.980;2022-11-15T00:16:39;6.45;;;3.75;;
60979;SDS011;46851;49.160;8.980;2022-11-15T00:19:05;7.05;;;3.78;;
60979;SDS011;46851;49.160;8.980;2022-11-15T00:21:31;8.82;;;3.50;;
60979;SDS011;46851;49.160;8.980;2022-11-15T00:23:58;6.47;;;3.42;;
60979;SDS011;46851;49.160;8.980;2022-11-15T00:26:24;7.15;;;3.83;;
60979;SDS011;46851;49.160;8.980;2022-11-15T00:28:51;6.55;;;4.20;;
60979;SDS011;46851;49.160;8.980;2022-11-15T00:31:18;7.30;;;4.22;;
60979;SDS011;46851;49.160;8.980;2022-11-15T00:33:44;6.70;;;3.95;;
60979;SDS011;46851;49.160;8.980;2022-11-15T00:36:11;7.22;;;3.90;;
60979;SDS011;46851;49.160;8.980;2022-11-15T00:38:38;7.72;;;3.97;;
60979;SDS011;46851;49.160;8.980;2022-11-15T00:41:04;8.32;;;4.03;;
60979;SDS011;46851;49.160;8.980;2022-11-15T00:43:31;8.00;;;3.92;;
60979;SDS011;46851;49.160;8.980;2022-11-15T00:45:57;6.47;;;3.95;;
60979;SDS011;46851;49.160;8.980;2022-11-15T00:48:23;12.98;;;4.38;;
60979;SDS011;46851;49.160;8.980;2022-11-15T00:50:49;6.10;;;4.03;;
60979;SDS011;46851;49.160;8.980;2022-11-15T00:53:16;5.45;;;3.83;;
60979;SDS011;46851;49.160;8.980;2022-11-15T00:55:42;8.07;;;3.90;;
60979;SDS011;46851;49.160;8.980;2022-11-15T00:58:08;8.18;;;4.00;;
60979;SDS011;46851;49.160;8.980;2022-11-15T01:00:34;5.90;;;4.03;;
60979;SDS011;46851;49.160;8.980;2022-11-15T01:03:00;5.25;;;3.78;;
60979;SDS011;46851;49.160;8.980;2022-11-15T01:07:55;10.27;;;4.25;;
60979;SDS011;46851;49.160;8.980;2022-11-15T01:10:24;7.45;;;4.35;;
60979;SDS011;46851;49.160;8.980;2022-11-15T01:12:51;6.73;;;4.50;;
60979;SDS011;46851;49.160;8.980;2022-11-15T01:15:17;7.72;;;4.20;;
60979;SDS011;46851;49.160;8.980;2022-11-15T01:17:43;7.72;;;4.18;;
60979;SDS011;46851;49.160;8.980;2022-11-15T01:20:09;10.35;;;4.43;;
60979;SDS011;46851;49.160;8.980;2022-11-15T01:22:35;11.60;;;4.85;;
60979;SDS011;46851;49.160;8.980;2022-11-15T01:25:01;7.72;;;3.97;;
60979;SDS011;46851;49.160;8.980;2022-11-15T01:27:27;6.45;;;3.78;;
60979;SDS011;46851;49.160;8.980;2022-11-15T01:29:53;6.00;;;3.42;;
60979;SDS011;46851;49.160;8.980;2022-11-15T01:32:19;9.52;;;4.13;;
60979;SDS011;46851;49.160;8.980;2022-11-15T01:34:45;7.22;;;4.10;;
60979;SDS011;46851;49.160;8.980;2022-11-15T01:37:11;7.85;;;3.95;;
60979;SDS011;46851;49.160;8.980;2022-11-15T01:39:37;10.20;;;4.70;;
60979;SDS011;46851;49.160;8.980;2022-11-15T01:42:03;5.78;;;4.03;;
60979;SDS011;46851;49.160;8.980;2022-11-15T01:44:48;6.30;;;4.03;;
60979;SDS011;46851;49.160;8.980;2022-11-15T01:47:33;10.43;;;4.05;;
60979;SDS011;46851;49.160;8.980;2022-11-15T01:50:02;6.03;;;3.72;;
60979;SDS011;46851;49.160;8.980;2022-11-15T01:52:30;6.40;;;3.67;;
60979;SDS011;46851;49.160;8.980;2022-11-15T01:54:59;5.10;;;3.80;;
60979;SDS011;46851;49.160;8.980;2022-11-15T01:57:27;5.50;;;3.88;;
60979;SDS011;46851;49.160;8.980;2022-11-15T01:59:53;7.40;;;3.88;;
60979;SDS011;46851;49.160;8.980;2022-11-15T02:02:19;6.60;;;3.70;;
60979;SDS011;46851;49.160;8.980;2022-11-15T02:04:46;8.25;;;4.15;;
60979;SDS011;46851;49.160;8.980;2022-11-15T02:07:14;7.68;;;4.10;;
60979;SDS011;46851;49.160;8.980;2022-11-15T02:09:40;6.25;;;3.85;;
60979;SDS011;46851;49.160;8.980;2022-11-15T02:12:07;8.50;;;3.90;;
60979;SDS011;46851;49.160;8.980;2022-11-15T02:14:34;7.43;;;4.18;;
60979;SDS011;46851;49.160;8.980;2022-11-15T02:30:28;8.20;;;4.00;;
60979;SDS011;46851;49.160;8.980;2022-11-15T02:33:03;8.35;;;3.90;;
60979;SDS011;46851;49.160;8.980;2022-11-15T02:38:22;7.40;;;3.95;;
60979;SDS011;46851;49.160;8.980;2022-11-15T02:43:28;6.60;;;4.38;;
60979;SDS011;46851;49.160;8.980;2022-11-15T02:48:45;5.93;;;3.97;;
60979;SDS011;46851;49.160;8.980;2022-11-15T02:51:12;8.18;;;3.65;;
60979;SDS011;46851;49.160;8.980;2022-11-15T02:53:39;6.75;;;4.00;;
60979;SDS011;46851;49.160;8.980;2022-11-15T02:56:05;5.32;;;3.40;;
60979;SDS011;46851;49.160;8.980;2022-11-15T03:06:39;6.35;;;3.13;;
60979;SDS011;46851;49.160;8.980;2022-11-15T03:09:17;4.93;;;3.10;;
60979;SDS011;46851;49.160;8.980;2022-11-15T03:11:48;6.13;;;3.55;;
60979;SDS011;46851;49.160;8.980;2022-11-15T03:14:23;4.78;;;3.03;;
60979;SDS011;46851;49.160;8.980;2022-11-15T03:21:46;4.70;;;2.70;;
60979;SDS011;46851;49.160;8.980;2022-11-15T03:24:13;5.43;;;3.00;;
60979;SDS011;46851;49.160;8.980;2022-11-15T03:26:40;4.93;;;2.83;;
60979;SDS011;46851;49.160;8.980;2022-11-15T03:29:11;6.57;;;3.00;;
60979;SDS011;46851;49.160;8.980;2022-11-15T03:31:40;6.45;;;3.22;;
60979;SDS011;46851;49.160;8.980;2022-11-15T03:36:51;6.28;;;3.15;;
60979;SDS011;46851;49.160;8.980;2022-11-15T03:39:17;6.38;;;3.60;;
60979;SDS011;46851;49.160;8.980;2022-11-15T03:41:47;5.65;;;3.15;;
60979;SDS011;46851;49.160;8.980;2022-11-15T03:44:16;4.78;;;2.88;;
60979;SDS011;46851;49.160;8.980;2022-11-15T03:46:47;12.00;;;3.38;;
60979;SDS011;46851;49.160;8.980;2022-11-15T03:49:16;5.20;;;2.78;;
60979;SDS011;46851;49.160;8.980;2022-11-15T03:51:42;4.50;;;2.78;;
60979;SDS011;46851;49.160;8.980;2022-11-15T03:54:10;9.77;;;3.28;;
60979;SDS011;46851;49.160;8.980;2022-11-15T03:56:37;4.35;;;2.78;;
60979;SDS011;46851;49.160;8.980;2022-11-15T03:59:03;6.35;;;3.08;;
60979;SDS011;46851;49.160;8.980;2022-11-15T04:01:29;3.53;;;2.58;;
60979;SDS011;46851;49.160;8.980;2022-11-15T04:03:55;6.25;;;3.05;;
60979;SDS011;46851;49.160;8.980;2022-11-15T04:06:21;6.45;;;3.22;;
60979;SDS011;46851;49.160;8.980;2022-11-15T04:08:47;4.70;;;2.80;;
60979;SDS011;46851;49.160;8.980;2022-11-15T04:11:13;6.35;;;2.95;;
60979;SDS011;46851;49.160;8.980;2022-11-15T04:13:39;3.85;;;2.67;;
60979;SDS011;46851;49.160;8.980;2022-11-15T04:16:05;5.40;;;2.63;;
60979;SDS011;46851;49.160;8.980;2022-11-15T04:18:31;8.77;;;3.25;;
60979;SDS011;46851;49.160;8.980;2022-11-15T04:20:57;5.05;;;2.85;;
60979;SDS011;46851;49.160;8.980;2022-11-15T04:23:42;2.90;;;2.50;;
60979;SDS011;46851;49.160;8.980;2022-11-15T04:26:27;8.68;;;3.55;;
60979;SDS011;46851;49.160;8.980;2022-11-15T04:28:53;3.75;;;2.85;;
60979;SDS011;46851;49.160;8.980;2022-11-15T04:31:37;11.93;;;3.72;;
60979;SDS011;46851;49.160;8.980;2022-11-15T04:34:03;6.15;;;3.20;;
60979;SDS011;46851;49.160;8.980;2022-11-15T04:36:29;4.30;;;3.00;;
60979;SDS011;46851;49.160;8.980;2022-11-15T04:39:14;5.13;;;2.92;;
60979;SDS011;46851;49.160;8.980;2022-11-15T04:41:40;3.90;;;2.90;;
60979;SDS011;46851;49.160;8.980;2022-11-15T04:44:06;6.22;;;3.42;;
60979;SDS011;46851;49.160;8.980;2022-11-15T04:46:32;7.22;;;3.70;;
60979;SDS011;46851;49.160;8.980;2022-11-15T04:48:58;5.13;;;2.95;;
60979;SDS011;46851;49.160;8.980;2022-11-15T04:51:24;3.88;;;2.60;;
60979;SDS011;46851;49.160;8.980;2022-11-15T04:53:50;6.22;;;2.90;;
60979;SDS011;46851;49.160;8.980;2022-11-15T04:56:16;8.02;;;3.00;;
60979;SDS011;46851;49.160;8.980;2022-11-15T04:58:42;5.25;;;2.92;;
60979;SDS011;46851;49.160;8.980;2022-11-15T05:01:09;7.38;;;3.78;;
60979;SDS011;46851;49.160;8.980;2022-11-15T05:03:35;4.60;;;2.97;;
60979;SDS011;46851;49.160;8.980;2022-11-15T05:06:20;5.45;;;3.20;;
60979;SDS011;46851;49.160;8.980;2022-11-15T05:08:46;7.70;;;2.78;;
60979;SDS011;46851;49.160;8.980;2022-11-15T05:11:12;6.38;;;2.97;;
60979;SDS011;46851;49.160;8.980;2022-11-15T05:13:38;6.75;;;3.50;;
60979;SDS011;46851;49.160;8.980;2022-11-15T05:16:04;4.38;;;3.05;;
60979;SDS011;46851;49.160;8.980;2022-11-15T05:18:30;3.83;;;2.83;;
60979;SDS011;46851;49.160;8.980;2022-11-15T05:21:02;7.15;;;2.70;;
60979;SDS011;46851;49.160;8.980;2022-11-15T05:23:28;6.43;;;3.08;;
60979;SDS011;46851;49.160;8.980;2022-11-15T05:25:58;6.50;;;2.90;;
60979;SDS011;46851;49.160;8.980;2022-11-15T05:30:50;13.02;;;3.00;;
60979;SDS011;46851;49.160;8.980;2022-11-15T05:33:16;4.53;;;2.63;;
60979;SDS011;46851;49.160;8.980;2022-11-15T05:35:45;4.82;;;2.75;;
60979;SDS011;46851;49.160;8.980;2022-11-15T05:38:12;4.20;;;2.58;;
60979;SDS011;46851;49.160;8.980;2022-11-15T05:40:38;5.13;;;3.72;;
60979;SDS011;46851;49.160;8.980;2022-11-15T05:43:04;7.45;;;3.25;;
60979;SDS011;46851;49.160;8.980;2022-11-15T05:45:31;8.90;;;3.45;;
60979;SDS011;46851;49.160;8.980;2022-11-15T05:47:57;8.75;;;3.60;;
60979;SDS011;46851;49.160;8.980;2022-11-15T05:50:24;3.88;;;3.17;;
60979;SDS011;46851;49.160;8.980;2022-11-15T05:52:50;5.10;;;3.10;;
60979;SDS011;46851;49.160;8.980;2022-11-15T05:55:17;6.10;;;3.00;;
60979;SDS011;46851;49.160;8.980;2022-11-15T05:57:43;5.53;;;2.97;;
60979;SDS011;46851;49.160;8.980;2022-11-15T06:00:10;8.95;;;3.10;;
60979;SDS011;46851;49.160;8.980;2022-11-15T06:02:36;7.88;;;2.70;;
60979;SDS011;46851;49.160;8.980;2022-11-15T06:05:03;5.10;;;3.00;;
60979;SDS011;46851;49.160;8.980;2022-11-15T06:07:29;6.18;;;2.75;;
60979;SDS011;46851;49.160;8.980;2022-11-15T06:09:55;5.43;;;3.10;;
60979;SDS011;46851;49.160;8.980;2022-11-15T06:12:21;5.20;;;2.83;;
60979;SDS011;46851;49.160;8.980;2022-11-15T06:14:47;5.05;;;2.85;;
60979;SDS011;46851;49.160;8.980;2022-11-15T06:17:13;5.22;;;2.53;;
60979;SDS011;46851;49.160;8.980;2022-11-15T06:19:39;7.55;;;2.90;;
60979;SDS011;46851;49.160;8.980;2022-11-15T06:22:05;4.18;;;2.38;;
60979;SDS011;46851;49.160;8.980;2022-11-15T06:24:43;7.25;;;2.30;;
60979;SDS011;46851;49.160;8.980;2022-11-15T06:27:12;8.73;;;2.40;;
60979;SDS011;46851;49.160;8.980;2022-11-15T06:29:38;5.50;;;2.80;;
60979;SDS011;46851;49.160;8.980;2022-11-15T06:32:04;4.97;;;2.40;;
60979;SDS011;46851;49.160;8.980;2022-11-15T06:34:30;5.65;;;3.30;;
60979;SDS011;46851;49.160;8.980;2022-11-15T06:36:56;8.15;;;3.65;;
60979;SDS011;46851;49.160;8.980;2022-11-15T06:39:22;8.82;;;5.22;;
60979;SDS011;46851;49.160;8.980;2022-11-15T06:41:48;12.63;;;6.22;;
60979;SDS011;46851;49.160;8.980;2022-11-15T06:44:14;13.35;;;4.95;;
60979;SDS011;46851;49.160;8.980;2022-11-15T06:46:41;9.02;;;5.05;;
60979;SDS011;46851;49.160;8.980;2022-11-15T06:49:07;9.93;;;4.78;;
60979;SDS011;46851;49.160;8.980;2022-11-15T06:51:33;7.22;;;4.03;;
60979;SDS011;46851;49.160;8.980;2022-11-15T06:53:59;10.38;;;4.28;;
60979;SDS011;46851;49.160;8.980;2022-11-15T06:56:25;8.82;;;3.70;;
60979;SDS011;46851;49.160;8.980;2022-11-15T06:58:51;5.30;;;3.65;;
60979;SDS011;46851;49.160;8.980;2022-11-15T07:01:17;5.00;;;3.28;;
60979;SDS011;46851;49.160;8.980;2022-11-15T07:03:43;6.45;;;4.10;;
60979;SDS011;46851;49.160;8.980;2022-11-15T07:06:10;8.63;;;4.35;;
60979;SDS011;46851;49.160;8.980;2022-11-15T07:08:36;14.15;;;4.25;;
60979;SDS011;46851;49.160;8.980;2022-11-15T07:11:04;10.50;;;3.97;;
60979;SDS011;46851;49.160;8.980;2022-11-15T07:13:30;9.25;;;4.32;;
60979;SDS011;46851;49.160;8.980;2022-11-15T07:16:06;15.15;;;4.88;;
60979;SDS011;46851;49.160;8.980;2022-11-15T07:18:36;19.48;;;5.82;;
60979;SDS011;46851;49.160;8.980;2022-11-15T07:21:03;9.93;;;5.10;;
60979;SDS011;46851;49.160;8.980;2022-11-15T07:23:29;13.35;;;4.55;;
60979;SDS011;46851;49.160;8.980;2022-11-15T07:25:58;10.68;;;3.95;;
60979;SDS011;46851;49.160;8.980;2022-11-15T07:28:25;9.83;;;4.40;;
60979;SDS011;46851;49.160;8.980;2022-11-15T07:30:51;10.25;;;3.63;;
60979;SDS011;46851;49.160;8.980;2022-11-15T07:33:17;8.95;;;3.22;;
60979;SDS011;46851;49.160;8.980;2022-11-15T07:35:43;14.25;;;6.47;;
60979;SDS011;46851;49.160;8.980;2022-11-15T07:38:13;13.18;;;6.03;;
60979;SDS011;46851;49.160;8.980;2022-11-15T07:40:40;17.88;;;7.65;;
60979;SDS011;46851;49.160;8.980;2022-11-15T07:43:06;15.27;;;6.68;;
60979;SDS011;46851;49.160;8.980;2022-11-15T07:45:32;18.27;;;6.30;;
60979;SDS011;46851;49.160;8.980;2022-11-15T07:47:59;13.75;;;4.15;;
60979;SDS011;46851;49.160;8.980;2022-11-15T07:50:26;12.65;;;4.50;;
60979;SDS011;46851;49.160;8.980;2022-11-15T07:52:55;9.75;;;5.53;;
60979;SDS011;46851;49.160;8.980;2022-11-15T07:55:25;19.52;;;6.25;;
60979;SDS011;46851;49.160;8.980;2022-11-15T07:57:52;10.30;;;4.35;;
60979;SDS011;46851;49.160;8.980;2022-11-15T08:00:19;8.35;;;4.47;;
60979;SDS011;46851;49.160;8.980;2022-11-15T08:02:45;12.57;;;6.00;;
60979;SDS011;46851;49.160;8.980;2022-11-15T08:05:11;8.98;;;2.72;;
60979;SDS011;46851;49.160;8.980;2022-11-15T08:07:37;3.92;;;2.72;;
60979;SDS011;46851;49.160;8.980;2022-11-15T08:10:05;3.33;;;2.13;;
60979;SDS011;46851;49.160;8.980;2022-11-15T08:12:32;10.93;;;2.80;;
60979;SDS011;46851;49.160;8.980;2022-11-15T08:14:59;7.68;;;2.60;;
60979;SDS011;46851;49.160;8.980;2022-11-15T08:17:25;11.68;;;3.00;;
60979;SDS011;46851;49.160;8.980;2022-11-15T08:19:51;7.30;;;2.60;;
60979;SDS011;46851;49.160;8.980;2022-11-15T08:22:17;4.68;;;2.05;;
60979;SDS011;46851;49.160;8.980;2022-11-15T08:24:43;4.80;;;2.40;;
60979;SDS011;46851;49.160;8.980;2022-11-15T08:27:10;10.20;;;2.70;;
60979;SDS011;46851;49.160;8.980;2022-11-15T08:29:42;9.48;;;3.22;;
60979;SDS011;46851;49.160;8.980;2022-11-15T08:32:08;7.35;;;2.58;;
60979;SDS011;46851;49.160;8.980;2022-11-15T08:34:35;11.05;;;3.15;;
60979;SDS011;46851;49.160;8.980;2022-11-15T08:37:01;11.73;;;3.70;;
60979;SDS011;46851;49.160;8.980;2022-11-15T08:39:27;16.13;;;3.95;;
60979;SDS011;46851;49.160;8.980;2022-11-15T08:41:53;4.10;;;2.25;;
60979;SDS011;46851;49.160;8.980;2022-11-15T08:44:19;5.78;;;2.45;;
60979;SDS011;46851;49.160;8.980;2022-11-15T08:46:45;3.88;;;2.33;;
60979;SDS011;46851;49.160;8.980;2022-11-15T08:49:11;5.18;;;2.55;;
60979;SDS011;46851;49.160;8.980;2022-11-15T08:51:37;6.95;;;2.80;;
60979;SDS011;46851;49.160;8.980;2022-11-15T08:54:03;3.78;;;2.40;;
60979;SDS011;46851;49.160;8.980;2022-11-15T08:56:29;3.40;;;2.13;;
60979;SDS011;46851;49.160;8.980;2022-11-15T08:58:55;6.80;;;2.95;;
60979;SDS011;46851;49.160;8.980;2022-11-15T09:01:21;9.05;;;3.00;;
60979;SDS011;46851;49.160;8.980;2022-11-15T09:03:47;6.40;;;3.15;;
60979;SDS011;46851;49.160;8.980;2022-11-15T09:06:14;9.77;;;4.93;;
60979;SDS011;46851;49.160;8.980;2022-11-15T09:08:40;17.55;;;4.65;;
60979;SDS011;46851;49.160;8.980;2022-11-15T09:11:07;12.32;;;6.40;;
60979;SDS011;46851;49.160;8.980;2022-11-15T09:13:33;15.20;;;5.75;;
60979;SDS011;46851;49.160;8.980;2022-11-15T09:16:00;18.92;;;4.70;;
60979;SDS011;46851;49.160;8.980;2022-11-15T09:18:26;15.40;;;6.07;;
60979;SDS011;46851;49.160;8.980;2022-11-15T09:20:56;11.88;;;4.38;;
60979;SDS011;46851;49.160;8.980;2022-11-15T09:25:48;14.35;;;3.55;;
60979;SDS011;46851;49.160;8.980;2022-11-15T09:28:14;8.75;;;3.75;;
60979;SDS011;46851;49.160;8.980;2022-11-15T09:30:41;9.68;;;3.40;;
60979;SDS011;46851;49.160;8.980;2022-11-15T09:33:07;6.82;;;3.45;;
60979;SDS011;46851;49.160;8.980;2022-11-15T09:35:33;11.68;;;2.63;;
60979;SDS011;46851;49.160;8.980;2022-11-15T09:37:59;10.88;;;3.72;;
60979;SDS011;46851;49.160;8.980;2022-11-15T09:40:25;6.97;;;3.53;;
60979;SDS011;46851;49.160;8.980;2022-11-15T09:48:06;5.75;;;2.63;;
60979;SDS011;46851;49.160;8.980;2022-11-15T09:50:38;18.65;;;3.55;;
60979;SDS011;46851;49.160;8.980;2022-11-15T09:53:11;13.63;;;2.33;;
60979;SDS011;46851;49.160;8.980;2022-11-15T09:55:45;9.07;;;2.70;;
60979;SDS011;46851;49.160;8.980;2022-11-15T10:00:48;8.85;;;2.88;;
60979;SDS011;46851;49.160;8.980;2022-11-15T10:03:28;5.90;;;3.35;;
60979;SDS011;46851;49.160;8.980;2022-11-15T10:06:01;12.68;;;3.10;;
60979;SDS011;46851;49.160;8.980;2022-11-15T10:08:44;11.57;;;3.97;;
60979;SDS011;46851;49.160;8.980;2022-11-15T10:11:19;11.43;;;3.50;;
60979;SDS011;46851;49.160;8.980;2022-11-15T10:13:46;12.55;;;3.60;;
60979;SDS011;46851;49.160;8.980;2022-11-15T10:16:20;4.65;;;2.83;;
60979;SDS011;46851;49.160;8.980;2022-11-15T10:21:49;7.18;;;3.00;;
60979;SDS011;46851;49.160;8.980;2022-11-15T10:24:19;5.45;;;2.85;;
60979;SDS011;46851;49.160;8.980;2022-11-15T10:26:46;9.77;;;3.10;;
60979;SDS011;46851;49.160;8.980;2022-11-15T10:29:17;7.32;;;3.38;;
60979;SDS011;46851;49.160;8.980;2022-11-15T10:31:43;10.20;;;3.13;;
60979;SDS011;46851;49.160;8.980;2022-11-15T10:36:36;12.02;;;3.10;;
60979;SDS011;46851;49.160;8.980;2022-11-15T10:39:02;6.13;;;2.90;;
60979;SDS011;46851;49.160;8.980;2022-11-15T10:44:41;15.63;;;3.88;;
60979;SDS011;46851;49.160;8.980;2022-11-15T10:46:41;6.25;;;2.60;;
60979;SDS011;46851;49.160;8.980;2022-11-15T10:51:51;10.02;;;3.45;;
60979;SDS011;46851;49.160;8.980;2022-11-15T10:54:28;5.82;;;2.75;;
60979;SDS011;46851;49.160;8.980;2022-11-15T10:56:57;19.20;;;4.00;;
60979;SDS011;46851;49.160;8.980;2022-11-15T10:59:28;9.43;;;3.17;;
60979;SDS011;46851;49.160;8.980;2022-11-15T11:01:55;12.98;;;3.22;;
60979;SDS011;46851;49.160;8.980;2022-11-15T11:04:23;11.85;;;2.97;;
60979;SDS011;46851;49.160;8.980;2022-11-15T11:06:55;11.13;;;3.47;;
60979;SDS011;46851;49.160;8.980;2022-11-15T11:11:51;13.18;;;3.13;;
60979;SDS011;46851;49.160;8.980;2022-11-15T11:14:20;20.17;;;3.85;;
60979;SDS011;46851;49.160;8.980;2022-11-15T11:17:05;15.98;;;3.75;;
60979;SDS011;46851;49.160;8.980;2022-11-15T11:24:41;5.28;;;2.88;;
60979;SDS011;46851;49.160;8.980;2022-11-15T11:32:30;16.75;;;5.07;;
60979;SDS011;46851;49.160;8.980;2022-11-15T11:35:08;9.85;;;4.68;;
60979;SDS011;46851;49.160;8.980;2022-11-15T11:37:37;9.35;;;3.95;;
60979;SDS011;46851;49.160;8.980;2022-11-15T11:40:12;11.20;;;4.53;;
60979;SDS011;46851;49.160;8.980;2022-11-15T11:42:53;9.73;;;3.67;;
60979;SDS011;46851;49.160;8.980;2022-11-15T11:48:39;10.10;;;4.38;;
60979;SDS011;46851;49.160;8.980;2022-11-15T11:50:45;7.25;;;3.30;;
60979;SDS011;46851;49.160;8.980;2022-11-15T11:53:15;14.63;;;3.72;;
60979;SDS011;46851;49.160;8.980;2022-11-15T11:55:47;15.27;;;2.95;;
60979;SDS011;46851;49.160;8.980;2022-11-15T12:00:49;10.00;;;2.55;;
60979;SDS011;46851;49.160;8.980;2022-11-15T12:03:40;10.35;;;2.90;;
60979;SDS011;46851;49.160;8.980;2022-11-15T12:06:20;6.70;;;2.55;;
60979;SDS011;46851;49.160;8.980;2022-11-15T12:08:52;8.75;;;3.30;;
60979;SDS011;46851;49.160;8.980;2022-11-15T12:14:05;9.23;;;3.72;;
60979;SDS011;46851;49.160;8.980;2022-11-15T12:16:34;12.25;;;4.97;;
60979;SDS011;46851;49.160;8.980;2022-11-15T12:19:01;18.80;;;6.07;;
60979;SDS011;46851;49.160;8.980;2022-11-15T12:21:41;8.68;;;3.80;;
60979;SDS011;46851;49.160;8.980;2022-11-15T12:27:05;8.07;;;3.38;;
60979;SDS011;46851;49.160;8.980;2022-11-15T12:29:40;7.65;;;2.67;;
60979;SDS011;46851;49.160;8.980;2022-11-15T12:32:50;6.88;;;2.83;;
60979;SDS011;46851;49.160;8.980;2022-11-15T12:34:56;6.90;;;2.53;;
60979;SDS011;46851;49.160;8.980;2022-11-15T12:43:03;18.17;;;3.40;;
60979;SDS011;46851;49.160;8.980;2022-11-15T12:45:34;13.02;;;3.10;;
60979;SDS011;46851;49.160;8.980;2022-11-15T12:58:42;12.07;;;4.28;;
60979;SDS011;46851;49.160;8.980;2022-11-15T13:01:09;13.18;;;3.92;;
60979;SDS011;46851;49.160;8.980;2022-11-15T13:03:35;27.77;;;4.70;;
60979;SDS011;46851;49.160;8.980;2022-11-15T13:06:02;10.60;;;3.67;;
60979;SDS011;46851;49.160;8.980;2022-11-15T13:08:36;14.48;;;6.10;;
60979;SDS011;46851;49.160;8.980;2022-11-15T13:13:46;22.17;;;6.70;;
60979;SDS011;46851;49.160;8.980;2022-11-15T13:16:17;11.02;;;5.47;;
60979;SDS011;46851;49.160;8.980;2022-11-15T13:18:52;10.80;;;4.45;;
60979;SDS011;46851;49.160;8.980;2022-11-15T13:21:23;7.53;;;3.28;;
60979;SDS011;46851;49.160;8.980;2022-11-15T13:24:12;6.13;;;3.28;;
60979;SDS011;46851;49.160;8.980;2022-11-15T13:26:39;6.43;;;3.72;;
60979;SDS011;46851;49.160;8.980;2022-11-15T13:29:12;8.02;;;3.13;;
60979;SDS011;46851;49.160;8.980;2022-11-15T13:31:41;12.40;;;3.97;;
60979;SDS011;46851;49.160;8.980;2022-11-15T13:36:45;8.95;;;4.20;;
60979;SDS011;46851;49.160;8.980;2022-11-15T13:39:28;12.15;;;4.15;;
60979;SDS011;46851;49.160;8.980;2022-11-15T13:41:54;14.27;;;4.20;;
60979;SDS011;46851;49.160;8.980;2022-11-15T13:44:24;12.93;;;4.00;;
60979;SDS011;46851;49.160;8.980;2022-11-15T13:49:35;9.18;;;4.18;;
60979;SDS011;46851;49.160;8.980;2022-11-15T13:52:04;9.20;;;4.22;;
60979;SDS011;46851;49.160;8.980;2022-11-15T13:54:33;14.27;;;3.97;;
60979;SDS011;46851;49.160;8.980;2022-11-15T13:59:27;18.05;;;4.18;;
60979;SDS011;46851;49.160;8.980;2022-11-15T14:01:54;9.38;;;3.72;;
60979;SDS011;46851;49.160;8.980;2022-11-15T14:04:21;14.80;;;4.22;;
60979;SDS011;46851;49.160;8.980;2022-11-15T14:06:49;6.97;;;3.60;;
60979;SDS011;46851;49.160;8.980;2022-11-15T14:09:29;17.13;;;6.20;;
60979;SDS011;46851;49.160;8.980;2022-11-15T14:11:57;18.17;;;7.20;;
60979;SDS011;46851;49.160;8.980;2022-11-15T14:14:24;17.30;;;7.00;;
60979;SDS011;46851;49.160;8.980;2022-11-15T14:16:52;31.10;;;9.38;;
60979;SDS011;46851;49.160;8.980;2022-11-15T14:24:32;7.72;;;4.40;;
60979;SDS011;46851;49.160;8.980;2022-11-15T14:27:15;11.48;;;4.25;;
60979;SDS011;46851;49.160;8.980;2022-11-15T14:29:41;8.10;;;3.85;;
60979;SDS011;46851;49.160;8.980;2022-11-15T14:32:17;8.35;;;4.00;;
60979;SDS011;46851;49.160;8.980;2022-11-15T14:34:44;8.70;;;3.97;;
60979;SDS011;46851;49.160;8.980;2022-11-15T14:37:32;21.00;;;4.47;;
60979;SDS011;46851;49.160;8.980;2022-11-15T14:39:59;8.60;;;4.20;;
60979;SDS011;46851;49.160;8.980;2022-11-15T14:42:25;19.52;;;4.60;;
60979;SDS011;46851;49.160;8.980;2022-11-15T14:44:51;10.45;;;4.05;;
60979;SDS011;46851;49.160;8.980;2022-11-15T14:47:17;10.85;;;3.92;;
60979;SDS011;46851;49.160;8.980;2022-11-15T14:49:43;7.53;;;3.63;;
60979;SDS011;46851;49.160;8.980;2022-11-15T14:54:57;6.68;;;3.58;;
60979;SDS011;46851;49.160;8.980;2022-11-15T14:57:24;9.07;;;3.70;;
60979;SDS011;46851;49.160;8.980;2022-11-15T14:59:50;7.80;;;3.78;;
60979;SDS011;46851;49.160;8.980;2022-11-15T15:02:20;5.47;;;3.55;;
60979;SDS011;46851;49.160;8.980;2022-11-15T15:04:46;6.78;;;3.40;;
60979;SDS011;46851;49.160;8.980;2022-11-15T15:07:14;7.38;;;3.20;;
60979;SDS011;46851;49.160;8.980;2022-11-15T15:09:40;10.80;;;4.30;;
60979;SDS011;46851;49.160;8.980;2022-11-15T15:12:40;16.95;;;4.78;;
60979;SDS011;46851;49.160;8.980;2022-11-15T15:15:02;5.25;;;3.30;;
60979;SDS011;46851;49.160;8.980;2022-11-15T15:17:28;5.63;;;3.25;;
60979;SDS011;46851;49.160;8.980;2022-11-15T15:22:33;8.00;;;3.97;;
60979;SDS011;46851;49.160;8.980;2022-11-15T15:25:02;6.18;;;3.80;;
60979;SDS011;46851;49.160;8.980;2022-11-15T15:27:34;9.17;;;4.20;;
60979;SDS011;46851;49.160;8.980;2022-11-15T15:30:00;12.65;;;4.13;;
60979;SDS011;46851;49.160;8.980;2022-11-15T15:32:26;10.75;;;4.13;;
60979;SDS011;46851;49.160;8.980;2022-11-15T15:34:52;8.90;;;3.40;;
60979;SDS011;46851;49.160;8.980;2022-11-15T15:37:21;8.63;;;3.95;;
60979;SDS011;46851;49.160;8.980;2022-11-15T15:39:49;10.38;;;4.05;;
60979;SDS011;46851;49.160;8.980;2022-11-15T15:42:15;6.20;;;3.45;;
60979;SDS011;46851;49.160;8.980;2022-11-15T15:44:41;8.73;;;4.28;;
60979;SDS011;46851;49.160;8.980;2022-11-15T15:47:10;8.63;;;4.20;;
60979;SDS011;46851;49.160;8.980;2022-11-15T15:49:36;11.63;;;5.72;;
60979;SDS011;46851;49.160;8.980;2022-11-15T15:52:02;36.15;;;10.18;;
60979;SDS011;46851;49.160;8.980;2022-11-15T15:54:28;10.57;;;6.28;;
60979;SDS011;46851;49.160;8.980;2022-11-15T15:56:54;15.35;;;7.05;;
60979;SDS011;46851;49.160;8.980;2022-11-15T15:59:20;12.07;;;5.22;;
60979;SDS011;46851;49.160;8.980;2022-11-15T16:01:46;11.00;;;4.50;;
60979;SDS011;46851;49.160;8.980;2022-11-15T16:04:12;7.65;;;3.63;;
60979;SDS011;46851;49.160;8.980;2022-11-15T16:06:39;11.75;;;3.08;;
60979;SDS011;46851;49.160;8.980;2022-11-15T16:09:14;4.88;;;2.25;;
60979;SDS011;46851;49.160;8.980;2022-11-15T16:11:41;13.17;;;4.13;;
60979;SDS011;46851;49.160;8.980;2022-11-15T16:14:08;8.00;;;2.80;;
60979;SDS011;46851;49.160;8.980;2022-11-15T16:16:34;8.65;;;2.80;;
60979;SDS011;46851;49.160;8.980;2022-11-15T16:19:01;10.02;;;3.08;;
60979;SDS011;46851;49.160;8.980;2022-11-15T16:21:27;4.65;;;2.50;;
60979;SDS011;46851;49.160;8.980;2022-11-15T16:23:53;9.13;;;2.95;;
60979;SDS011;46851;49.160;8.980;2022-11-15T16:26:20;6.40;;;2.60;;
60979;SDS011;46851;49.160;8.980;2022-11-15T16:28:47;7.03;;;3.20;;
60979;SDS011;46851;49.160;8.980;2022-11-15T16:31:13;11.95;;;2.53;;
60979;SDS011;46851;49.160;8.980;2022-11-15T16:33:41;13.23;;;2.80;;
60979;SDS011;46851;49.160;8.980;2022-11-15T16:38:46;5.53;;;2.45;;
60979;SDS011;46851;49.160;8.980;2022-11-15T16:41:12;8.15;;;3.20;;
60979;SDS011;46851;49.160;8.980;2022-11-15T16:43:38;10.13;;;3.38;;
60979;SDS011;46851;49.160;8.980;2022-11-15T16:46:11;3.78;;;2.58;;
60979;SDS011;46851;49.160;8.980;2022-11-15T16:48:38;7.68;;;3.67;;
60979;SDS011;46851;49.160;8.980;2022-11-15T16:51:04;8.00;;;2.75;;
60979;SDS011;46851;49.160;8.980;2022-11-15T16:53:36;4.40;;;2.55;;
60979;SDS011;46851;49.160;8.980;2022-11-15T16:56:02;5.63;;;2.50;;
60979;SDS011;46851;49.160;8.980;2022-11-15T16:58:36;6.50;;;2.35;;